| time (UTC) | temp F | wind direction | speed knots | gust knots | rain 1hr in | rain 24hr in | rain mn in | humidity % | barometer mb |
| 20260507000032 | 58 | 191 | 0.9 | 6.1 | 0.01 | 0.22 | 0.21 | 94 | 1010.3 |
| 20260506233033 | 58 | 204 | 0.9 | 5.2 | 0.00 | 0.21 | 0.21 | 93 | 1009.9 |
| 20260506231535 | 58 | 192 | 0.9 | 3.5 | 0.00 | 0.21 | 0.21 | 93 | 1009.7 |
| 20260506230036 | 58 | 199 | 0.9 | 4.3 | 0.00 | 0.21 | 0.21 | 93 | 1009.8 |
| 20260506224531 | 58 | 212 | 0.9 | 6.1 | 0.01 | 0.21 | 0.21 | 93 | 1009.7 |
| 20260506223035 | 58 | 197 | 0.9 | 4.3 | 0.01 | 0.21 | 0.21 | 93 | 1009.6 |
| 20260506221549 | 58 | 193 | 0.9 | 4.3 | 0.01 | 0.21 | 0.21 | 93 | 1009.6 |
| 20260506214533 | 59 | 205 | 0.9 | 5.2 | 0.00 | 0.20 | 0.20 | 93 | 1009.6 |
| 20260506213035 | 59 | 190 | 0.9 | 7.8 | 0.01 | 0.20 | 0.20 | 93 | 1009.7 |
| 20260506211548 | 59 | 190 | 1.7 | 7.0 | 0.05 | 0.20 | 0.20 | 93 | 1009.7 |
| 20260506210034 | 59 | 190 | 0.9 | 5.2 | 0.10 | 0.20 | 0.20 | 92 | 1010.0 |
| 20260506204533 | 59 | 197 | 0.9 | 4.3 | 0.11 | 0.20 | 0.19 | 92 | 1010.2 |
| 20260506203032 | 59 | 191 | 0.9 | 7.0 | 0.10 | 0.19 | 0.15 | 92 | 1010.3 |
| 20260506201533 | 59 | 217 | 0.9 | 4.3 | 0.06 | 0.15 | 0.10 | 91 | 1010.3 |
| 20260506200032 | 59 | 192 | 1.7 | 5.2 | 0.01 | 0.10 | 0.09 | 91 | 1010.4 |
| 20260506194531 | 59 | 207 | 1.7 | 6.1 | 0.01 | 0.09 | 0.09 | 90 | 1010.5 |
| 20260506193034 | 59 | 206 | 1.7 | 7.0 | 0.02 | 0.09 | 0.09 | 90 | 1010.7 |
| 20260506191535 | 59 | 210 | 1.7 | 7.8 | 0.04 | 0.09 | 0.09 | 91 | 1010.7 |
| 20260506190036 | 59 | 192 | 2.6 | 10.4 | 0.05 | 0.09 | 0.08 | 90 | 1010.7 |
| 20260506184549 | 59 | 189 | 2.6 | 8.7 | 0.05 | 0.08 | 0.07 | 90 | 1011.0 |
| 20260506183033 | 60 | 197 | 0.9 | 7.0 | 0.05 | 0.07 | 0.05 | 89 | 1011.1 |
| 20260506181534 | 60 | 182 | 1.7 | 7.8 | 0.04 | 0.05 | 0.04 | 89 | 1011.0 |
| 20260506180034 | 60 | 187 | 1.7 | 8.7 | 0.04 | 0.04 | 0.03 | 88 | 1011.1 |
| 20260506174533 | 61 | 174 | 1.7 | 7.8 | 0.03 | 0.03 | 0.02 | 86 | 1011.4 |
| 20260506171548 | 63 | 193 | 0.9 | 5.2 | 0.01 | 0.01 | 0.00 | 81 | 1012.2 |
| 20260506164531 | 65 | 217 | 1.7 | 7.0 | 0.00 | 0.00 | 0.00 | 75 | 1012.1 |
| 20260506163034 | 66 | 199 | 2.6 | 8.7 | 0.00 | 0.00 | 0.00 | 72 | 1011.9 |
| 20260506161533 | 67 | 209 | 2.6 | 7.8 | 0.00 | 0.00 | 0.00 | 71 | 1011.9 |
| 20260506160033 | 67 | 198 | 2.6 | 7.8 | 0.00 | 0.00 | 0.00 | 70 | 1012.2 |
| 20260506154532 | 67 | 205 | 1.7 | 9.6 | 0.00 | 0.00 | 0.00 | 70 | 1012.2 |
| 20260506153032 | 67 | 204 | 1.7 | 6.1 | 0.00 | 0.00 | 0.00 | 71 | 1012.2 |
| 20260506151533 | 67 | 211 | 2.6 | 7.8 | 0.00 | 0.00 | 0.00 | 70 | 1012.2 |
| 20260506150033 | 67 | 212 | 2.6 | 7.0 | 0.00 | 0.00 | 0.00 | 71 | 1012.3 |
| 20260506144535 | 66 | 209 | 2.6 | 7.0 | 0.00 | 0.00 | 0.00 | 72 | 1012.5 |
| 20260506143034 | 66 | 191 | 2.6 | 6.1 | 0.00 | 0.00 | 0.00 | 73 | 1012.6 |
| 20260506141532 | 65 | 197 | 1.7 | 7.0 | 0.00 | 0.00 | 0.00 | 75 | 1012.6 |
| 20260506140036 | 65 | 240 | 0.9 | 6.1 | 0.00 | 0.00 | 0.00 | 75 | 1012.6 |
| 20260506134535 | 64 | 182 | 2.6 | 6.1 | 0.00 | 0.00 | 0.00 | 76 | 1012.5 |
| 20260506133033 | 63 | 180 | 1.7 | 9.6 | 0.00 | 0.00 | 0.00 | 77 | 1012.6 |
| 20260506131534 | 63 | 215 | 1.7 | 7.0 | 0.00 | 0.00 | 0.00 | 79 | 1012.7 |
| 20260506130032 | 62 | 215 | 1.7 | 9.6 | 0.00 | 0.00 | 0.00 | 80 | 1012.9 |
| 20260506124534 | 62 | 201 | 1.7 | 6.1 | 0.00 | 0.00 | 0.00 | 79 | 1013.3 |
| 20260506123032 | 62 | 197 | 2.6 | 8.7 | 0.00 | 0.00 | 0.00 | 80 | 1013.3 |
| 20260506120048 | 60 | 200 | 1.7 | 7.8 | 0.00 | 0.00 | 0.00 | 82 | 1013.2 |
| 20260506114530 | 60 | 200 | 0.9 | 7.0 | 0.00 | 0.00 | 0.00 | 83 | 1013.4 |
| 20260506111547 | 59 | 210 | 0.9 | 7.0 | 0.00 | 0.00 | 0.00 | 84 | 1013.6 |
| 20260506110034 | 58 | 212 | 1.7 | 6.1 | 0.00 | 0.00 | 0.00 | 85 | 1013.5 |
| 20260506104532 | 58 | 220 | 0.9 | 6.1 | 0.00 | 0.00 | 0.00 | 85 | 1013.5 |
| 20260506103034 | 57 | 188 | 0.9 | 6.1 | 0.00 | 0.00 | 0.00 | 86 | 1013.3 |
| 20260506101532 | 57 | 186 | 0.9 | 6.1 | 0.00 | 0.00 | 0.00 | 85 | 1013.2 |
| 20260506100055 | 57 | 176 | 0.9 | 5.2 | 0.00 | 0.00 | 0.00 | 85 | 1013.2 |
| 20260506094533 | 57 | 195 | 0.9 | 6.1 | 0.00 | 0.00 | 0.00 | 85 | 1013.2 |
| 20260506093035 | 58 | 173 | 0.9 | 5.2 | 0.00 | 0.00 | 0.00 | 84 | 1013.2 |
| 20260506091532 | 58 | 184 | 0.9 | 7.0 | 0.00 | 0.00 | 0.00 | 84 | 1013.3 |
| 20260506090034 | 58 | 184 | 0.9 | 6.1 | 0.00 | 0.00 | 0.00 | 84 | 1013.3 |
| 20260506084531 | 58 | 187 | 0.9 | 4.3 | 0.00 | 0.00 | 0.00 | 83 | 1013.4 |
| 20260506083033 | 58 | 187 | 0.9 | 4.3 | 0.00 | 0.00 | 0.00 | 82 | 1013.3 |
| 20260506081531 | 58 | 202 | 0.9 | 3.5 | 0.00 | 0.00 | 0.00 | 82 | 1013.2 |
| 20260506073034 | 59 | 187 | 0.9 | 6.1 | 0.00 | 0.00 | 0.00 | 80 | 1013.5 |
| 20260506071532 | 59 | 192 | 0.9 | 9.6 | 0.00 | 0.00 | 0.00 | 80 | 1013.4 |
| 20260506061532 | 60 | 195 | 0.0 | 5.2 | 0.00 | 0.00 | 0.00 | 78 | 1013.2 |
| 20260506044532 | 63 | 179 | 2.6 | 9.6 | 0.00 | 0.00 | 0.00 | 71 | 1013.5 |
| 20260506043031 | 63 | 191 | 1.7 | 11.3 | 0.00 | 0.00 | 0.00 | 71 | 1013.4 |
| 20260506040057 | 63 | 188 | 1.7 | 6.1 | 0.00 | 0.00 | 0.00 | 69 | 1013.5 |
| 20260506034542 | 63 | 179 | 1.7 | 6.1 | 0.00 | 0.00 | 0.00 | 68 | 1013.6 |
| 20260506033040 | 63 | 192 | 1.7 | 8.7 | 0.00 | 0.00 | 0.00 | 68 | 1013.5 |
| 20260506031544 | 63 | 185 | 1.7 | 6.1 | 0.00 | 0.00 | 0.00 | 68 | 1013.5 |
| 20260506024539 | 63 | 199 | 2.6 | 6.1 | 0.00 | 0.00 | 0.00 | 67 | 1013.4 |
| 20260506023041 | 63 | 208 | 1.7 | 6.1 | 0.00 | 0.00 | 0.00 | 66 | 1013.3 |
| 20260506021541 | 63 | 181 | 1.7 | 7.8 | 0.00 | 0.00 | 0.00 | 66 | 1013.4 |
| 20260506020042 | 64 | 183 | 1.7 | 7.0 | 0.00 | 0.00 | 0.00 | 65 | 1013.3 |
| 20260506014556 | 64 | 203 | 1.7 | 7.0 | 0.00 | 0.00 | 0.00 | 64 | 1013.2 |
| 20260506013041 | 64 | 185 | 1.7 | 5.2 | 0.00 | 0.00 | 0.00 | 63 | 1013.0 |
| 20260506011541 | 65 | 198 | 0.9 | 8.7 | 0.00 | 0.00 | 0.00 | 62 | 1012.8 |
| 20260506010042 | 65 | 177 | 1.7 | 7.0 | 0.00 | 0.00 | 0.00 | 61 | 1012.7 |
| 20260506004541 | 66 | 185 | 1.7 | 9.6 | 0.00 | 0.00 | 0.00 | 61 | 1012.6 |
| 20260506001541 | 67 | 198 | 1.7 | 7.8 | 0.00 | 0.00 | 0.00 | 60 | 1011.9 |